ダーウィン の空港の天気 - METARとTAF

ダーウィン国際空港 ( YPDN / DRW ) - オーストラリア ノーザンテリトリーダーウィン
飛行場実況気象(Metar)
観測時間10/26 05:00 ACST (10/25 19:30 UTC)
風向・風速北北西 3m/s
視程10km以上
天気現象
全天の4割程度の雲 雲底高度 670m
気温29℃
湿度74%
気圧1007hPa
METARYPDN 251930Z AUTO 33005KT 9999 // SCT022 29/24 Q1007
過去の天気等 Google飛行場航空写真 Wunderground天気予報

過去48時間のMETAR

飛行場予報(TAF)
発表時間: 10/26 02:59 ACST (10/25 17:29 UTC)
予報対象時間: 26日3時 ACST ~ 27日9時 ACST
風向・風速西北西 4m/s
視程10km以上
少しの雲 雲底高度 610m
26日9時 ACST から
風向・風速北北西 6m/s
視程10km以上
少しの雲 雲底高度 910m
26日19時 ACST から
風向・風速北 4m/s
視程10km以上
全天の4割程度の雲 雲底高度 610m
26日14時 ACST ~ 26日18時 ACST に 確率 30% で一時的に
風向・風速不定 10m/s 瞬間風速 18m/s
視程2000m
天気現象雷雨
全天の8割程度の雲 雲底高度 370m
全天の4割程度の積乱雲 雲底高度 760m
TAF AMD YPDN 251729Z 2518/2700 29007KT 9999 FEW020
FM260000 33012KT 9999 FEW030
FM261000 35007KT 9999 SCT020 INTER 2604/2609 4000 SHRA BKN012 INTER 2616/2621 4000 SHRA BKN012
PROB30 TEMPO 2605/2609 VRB20G35KT 2000 TSRA BKN012 SCT025CB